createdAt,value
2018-07-13T00:00:41.026Z,12.83
2018-07-13T00:03:10.293Z,12.60
2018-07-13T00:05:39.546Z,14.30
2018-07-13T00:08:08.707Z,13.80
2018-07-13T00:10:37.810Z,13.90
2018-07-13T00:13:07.013Z,14.43
2018-07-13T00:15:38.447Z,14.73
2018-07-13T00:18:07.663Z,14.80
2018-07-13T00:20:36.759Z,14.30
2018-07-13T00:23:06.026Z,13.80
2018-07-13T00:25:35.176Z,15.03
2018-07-13T00:28:04.479Z,15.87
2018-07-13T00:30:33.650Z,15.60
2018-07-13T00:33:02.746Z,15.00
2018-07-13T00:35:32.168Z,15.30
2018-07-13T00:38:01.263Z,15.50
2018-07-13T00:40:30.560Z,14.87
2018-07-13T00:42:59.785Z,16.27
2018-07-13T00:45:29.158Z,14.57
2018-07-13T00:47:58.224Z,15.43
2018-07-13T00:50:27.431Z,15.77
2018-07-13T00:52:56.729Z,15.87
2018-07-13T00:55:26.267Z,15.17
2018-07-13T00:57:55.355Z,15.50
2018-07-13T01:00:33.285Z,16.37
2018-07-13T01:03:03.824Z,16.57
2018-07-13T01:05:33.388Z,15.87
2018-07-13T01:08:02.491Z,16.80
2018-07-13T01:10:31.787Z,16.70
2018-07-13T01:13:00.859Z,17.20
2018-07-13T01:15:29.974Z,17.50
2018-07-13T01:17:59.270Z,18.27
2018-07-13T01:20:28.443Z,19.70
2018-07-13T01:22:58.506Z,17.23
2018-07-13T01:25:27.586Z,17.37
2018-07-13T01:27:57.600Z,17.47
2018-07-13T01:30:26.760Z,17.40
2018-07-13T01:32:55.959Z,19.00
2018-07-13T01:35:25.515Z,20.53
2018-07-13T01:37:54.731Z,19.53
2018-07-13T01:40:24.629Z,20.87
2018-07-13T01:42:53.809Z,19.30
2018-07-13T01:45:23.016Z,20.17
2018-07-13T01:47:52.341Z,21.13
2018-07-13T01:50:21.426Z,21.03
2018-07-13T01:52:50.739Z,22.27
2018-07-13T01:55:19.978Z,20.87
2018-07-13T01:57:49.207Z,21.73
2018-07-13T02:00:18.397Z,21.47
2018-07-13T02:02:47.599Z,21.80
2018-07-13T02:05:16.852Z,20.83
2018-07-13T02:07:46.062Z,20.17
2018-07-13T02:10:15.259Z,20.67
2018-07-13T02:12:44.494Z,21.10
2018-07-13T02:15:13.573Z,21.10
2018-07-13T02:17:43.484Z,21.53
2018-07-13T02:20:13.137Z,20.13
2018-07-13T02:22:42.260Z,19.20
2018-07-13T02:25:12.112Z,19.57
2018-07-13T02:27:41.907Z,19.83
2018-07-13T02:30:11.115Z,20.37
2018-07-13T02:32:40.318Z,19.83
2018-07-13T02:35:09.532Z,19.83
2018-07-13T02:37:38.844Z,19.47
2018-07-13T02:40:07.976Z,22.43
2018-07-13T02:42:37.989Z,21.63
2018-07-13T02:45:07.678Z,22.10
2018-07-13T02:47:37.147Z,19.90
2018-07-13T02:50:06.446Z,20.27
2018-07-13T02:52:35.537Z,21.33
2018-07-13T02:55:04.776Z,23.17
2018-07-13T02:57:33.922Z,22.53
2018-07-13T03:00:03.259Z,22.67
2018-07-13T03:02:32.434Z,22.27
2018-07-13T03:05:01.623Z,22.40
2018-07-13T03:07:30.927Z,23.43
2018-07-13T03:09:59.998Z,23.73
2018-07-13T03:12:29.132Z,22.57
2018-07-13T03:14:58.291Z,22.83
2018-07-13T03:17:27.456Z,23.70
2018-07-13T03:19:56.858Z,23.10
2018-07-13T03:22:25.926Z,24.40
2018-07-13T03:24:55.309Z,24.70
2018-07-13T03:27:24.398Z,23.43
2018-07-13T03:29:53.624Z,25.80
2018-07-13T03:32:22.717Z,24.40
2018-07-13T03:34:51.791Z,24.90
2018-07-13T03:37:21.013Z,24.63
2018-07-13T03:39:53.075Z,24.63
2018-07-13T03:42:22.386Z,24.70
2018-07-13T03:44:51.570Z,25.67
2018-07-13T03:47:20.767Z,26.03
2018-07-13T03:49:50.293Z,23.53
2018-07-13T03:52:19.634Z,23.57
2018-07-13T03:54:48.825Z,22.90
2018-07-13T03:57:17.901Z,24.47
2018-07-13T03:59:47.157Z,23.20
2018-07-13T04:02:16.464Z,24.67
2018-07-13T04:04:45.670Z,22.37
2018-07-13T04:07:14.833Z,23.00
2018-07-13T04:09:43.928Z,20.70
2018-07-13T04:12:13.176Z,22.30
2018-07-13T04:14:45.630Z,20.90
2018-07-13T04:17:15.046Z,20.73
2018-07-13T04:19:44.522Z,20.80
2018-07-13T04:22:13.877Z,20.50
2018-07-13T04:24:43.301Z,20.77
2018-07-13T04:27:13.038Z,20.60
2018-07-13T04:29:42.502Z,20.60
2018-07-13T04:32:12.186Z,19.97
2018-07-13T04:34:41.595Z,20.37
2018-07-13T04:37:11.220Z,20.67
2018-07-13T04:39:40.317Z,20.80
2018-07-13T04:42:10.088Z,20.23
2018-07-13T04:44:39.632Z,20.47
2018-07-13T04:47:08.908Z,21.03
2018-07-13T04:49:37.677Z,20.70
2018-07-13T04:52:06.855Z,20.80
2018-07-13T04:54:36.017Z,19.67
2018-07-13T04:57:05.254Z,19.03
2018-07-13T04:59:34.577Z,19.80
2018-07-13T05:02:05.540Z,19.37
2018-07-13T05:04:34.910Z,20.90
2018-07-13T05:07:04.764Z,20.20
2018-07-13T05:09:33.927Z,20.20
2018-07-13T05:12:03.263Z,20.23
2018-07-13T05:14:32.494Z,18.20
2018-07-13T05:17:01.866Z,18.20
2018-07-13T05:19:31.854Z,19.33
2018-07-13T05:22:01.097Z,19.20
2018-07-13T05:24:31.183Z,18.33
2018-07-13T05:27:00.537Z,18.70
2018-07-13T05:29:30.051Z,19.43
2018-07-13T05:31:59.187Z,17.80
2018-07-13T05:34:28.534Z,16.57
2018-07-13T05:36:57.980Z,18.40
2018-07-13T05:39:27.173Z,18.67
2018-07-13T05:41:56.783Z,17.43
2018-07-13T05:44:26.220Z,17.37
2018-07-13T05:46:55.955Z,17.77
2018-07-13T05:49:25.298Z,17.03
2018-07-13T05:51:55.044Z,15.80
2018-07-13T05:54:24.202Z,15.57
2018-07-13T05:56:54.074Z,17.20
2018-07-13T05:59:23.347Z,16.93
2018-07-13T06:01:52.557Z,15.57
2018-07-13T06:04:21.698Z,15.27
2018-07-13T06:06:50.871Z,15.00
2018-07-13T06:09:20.760Z,14.57
2018-07-13T06:11:50.220Z,15.10
2018-07-13T06:14:19.765Z,15.73
2018-07-13T06:16:48.838Z,13.80
2018-07-13T06:19:18.098Z,15.70
2018-07-13T06:21:47.826Z,14.20
2018-07-13T06:24:17.726Z,14.03
2018-07-13T06:26:46.822Z,14.70
2018-07-13T06:29:16.080Z,15.30
2018-07-13T06:31:45.380Z,14.73
2018-07-13T06:34:15.155Z,14.33
2018-07-13T06:36:44.289Z,14.53
2018-07-13T06:39:13.898Z,13.27
2018-07-13T06:41:43.731Z,12.77
2018-07-13T06:44:12.902Z,13.23
2018-07-13T06:46:45.714Z,13.40
2018-07-13T06:49:15.582Z,13.33
2018-07-13T06:51:45.857Z,13.37
2018-07-13T06:54:14.994Z,12.57
2018-07-13T06:56:44.323Z,11.97
2018-07-13T06:59:15.235Z,12.37
2018-07-13T07:01:45.050Z,12.60
2018-07-13T07:04:37.628Z,10.73
2018-07-13T07:07:15.233Z,12.23
2018-07-13T07:09:48.862Z,10.50
2018-07-13T07:12:40.340Z,10.37
2018-07-13T07:15:09.533Z,9.20
2018-07-13T07:17:38.756Z,10.60
2018-07-13T07:20:08.129Z,10.20
2018-07-13T07:22:37.488Z,10.30
2018-07-13T07:25:06.943Z,9.17
2018-07-13T07:27:36.820Z,10.40
2018-07-13T07:30:05.914Z,9.13
2018-07-13T07:32:35.135Z,9.27
2018-07-13T07:35:04.342Z,7.57
2018-07-13T07:37:33.110Z,7.60
2018-07-13T07:40:02.308Z,8.47
2018-07-13T07:42:31.713Z,8.10
2018-07-13T07:45:01.109Z,7.87
2018-07-13T07:47:30.307Z,7.70
2018-07-13T07:49:59.893Z,7.13
2018-07-13T07:52:29.226Z,7.27
2018-07-13T07:54:58.424Z,7.20
2018-07-13T07:57:28.202Z,6.80
2018-07-13T07:59:57.253Z,7.00
2018-07-13T08:02:26.536Z,5.97
2018-07-13T08:04:55.764Z,6.40
2018-07-13T08:07:25.032Z,5.73
2018-07-13T08:09:54.364Z,5.80
2018-07-13T08:12:23.458Z,5.40
2018-07-13T08:14:52.712Z,5.60
2018-07-13T08:17:21.940Z,5.63
2018-07-13T08:19:51.279Z,5.77
2018-07-13T08:22:56.351Z,5.90
2018-07-13T08:25:27.235Z,4.90
2018-07-13T08:28:00.353Z,4.77
2018-07-13T08:30:32.989Z,4.33
2018-07-13T08:33:02.381Z,4.53
2018-07-13T08:35:32.478Z,4.40
2018-07-13T08:38:02.102Z,3.60
2018-07-13T08:40:31.305Z,3.73
2018-07-13T08:43:00.562Z,4.07
2018-07-13T08:45:29.651Z,3.53
2018-07-13T08:47:58.883Z,3.47
2018-07-13T08:50:28.596Z,4.43
2018-07-13T08:52:58.729Z,3.83
2018-07-13T08:55:27.960Z,4.27
2018-07-13T08:57:57.177Z,4.07
2018-07-13T09:00:26.310Z,4.20
2018-07-13T09:02:56.658Z,3.60
2018-07-13T09:05:25.860Z,3.37
2018-07-13T09:07:54.944Z,3.00
2018-07-13T09:10:24.831Z,3.13
2018-07-13T09:12:54.742Z,3.60
2018-07-13T09:15:24.076Z,3.80
2018-07-13T09:17:53.298Z,3.80
2018-07-13T09:20:22.588Z,3.37
2018-07-13T09:22:51.751Z,3.67
2018-07-13T09:25:20.844Z,4.23
2018-07-13T09:27:50.029Z,3.73
2018-07-13T09:30:19.271Z,3.40
2018-07-13T09:32:48.538Z,3.77
2018-07-13T09:35:17.753Z,3.13
2018-07-13T09:37:46.932Z,3.77
2018-07-13T09:40:16.120Z,4.10
2018-07-13T09:42:45.291Z,4.17
2018-07-13T09:45:14.429Z,3.50
2018-07-13T09:47:43.639Z,4.00
2018-07-13T09:50:12.723Z,3.60
2018-07-13T09:52:41.854Z,4.33
2018-07-13T09:55:11.095Z,3.53
2018-07-13T09:57:40.529Z,3.30
2018-07-13T10:00:11.773Z,3.40
2018-07-13T10:02:41.018Z,3.83
2018-07-13T10:05:10.509Z,3.67
2018-07-13T10:07:39.860Z,3.23
2018-07-13T10:10:09.189Z,3.33
2018-07-13T10:12:38.691Z,2.97
2018-07-13T10:15:08.985Z,3.07
2018-07-13T10:17:38.148Z,3.23
2018-07-13T10:20:07.426Z,3.50
2018-07-13T10:22:37.504Z,4.03
2018-07-13T10:25:06.632Z,3.50
2018-07-13T10:27:37.571Z,3.33
2018-07-13T10:30:09.837Z,4.10
2018-07-13T10:32:38.969Z,3.53
2018-07-13T10:35:08.597Z,3.17
2018-07-13T10:37:38.078Z,3.17
2018-07-13T10:40:07.242Z,2.73
2018-07-13T10:42:36.312Z,2.83
2018-07-13T10:45:05.743Z,2.90
2018-07-13T10:47:34.989Z,3.30
2018-07-13T10:50:04.167Z,3.13
2018-07-13T10:52:33.070Z,2.50
2018-07-13T10:55:02.318Z,2.80
2018-07-13T10:57:32.096Z,2.77
2018-07-13T11:00:01.472Z,2.80
2018-07-13T11:02:30.624Z,2.70
2018-07-13T11:04:59.974Z,3.00
2018-07-13T11:07:29.188Z,2.70
2018-07-13T11:09:58.421Z,2.73
2018-07-13T11:12:27.795Z,2.50
2018-07-13T11:14:57.427Z,2.60
2018-07-13T11:17:26.754Z,3.08
2018-07-13T11:19:55.817Z,2.87
2018-07-13T11:22:25.052Z,2.90
2018-07-13T11:24:54.388Z,2.80
2018-07-13T11:27:23.634Z,3.10
2018-07-13T11:29:53.340Z,3.07
2018-07-13T11:32:22.456Z,3.17
2018-07-13T11:34:51.505Z,2.85
2018-07-13T11:37:20.894Z,2.60
2018-07-13T11:39:49.887Z,3.10
2018-07-13T11:42:19.151Z,2.90
2018-07-13T11:44:48.439Z,3.10
2018-07-13T11:47:17.504Z,2.83
2018-07-13T11:49:47.122Z,3.08
2018-07-13T11:52:16.542Z,3.10
2018-07-13T11:54:46.059Z,2.67
2018-07-13T11:57:15.468Z,2.98
2018-07-13T11:59:44.798Z,2.70
2018-07-13T12:02:14.102Z,2.40
2018-07-13T12:04:43.266Z,2.70
2018-07-13T12:07:12.324Z,2.75
2018-07-13T12:09:41.660Z,2.98
2018-07-13T12:12:11.273Z,2.60
2018-07-13T12:14:43.347Z,3.12
2018-07-13T12:17:12.709Z,3.20
2018-07-13T12:19:41.882Z,3.02
2018-07-13T12:22:11.105Z,2.40
2018-07-13T12:24:40.551Z,2.65
2018-07-13T12:27:10.587Z,2.92
2018-07-13T12:29:39.644Z,3.45
2018-07-13T12:32:08.947Z,3.15
2018-07-13T12:34:38.136Z,3.20
2018-07-13T12:37:07.415Z,2.87
2018-07-13T12:39:36.512Z,3.20
2018-07-13T12:42:05.760Z,3.00
2018-07-13T12:44:35.164Z,2.70
2018-07-13T12:47:04.226Z,2.87
2018-07-13T12:49:33.442Z,2.43
2018-07-13T12:52:02.657Z,2.90
2018-07-13T12:54:31.981Z,2.90
2018-07-13T12:57:01.052Z,2.90
2018-07-13T12:59:31.014Z,3.45
2018-07-13T13:02:00.140Z,2.98
2018-07-13T13:04:29.346Z,3.00
2018-07-13T13:06:58.535Z,3.30
2018-07-13T13:09:27.609Z,3.50
2018-07-13T13:11:56.855Z,3.35
2018-07-13T13:14:25.916Z,3.40
2018-07-13T13:16:55.066Z,3.70
2018-07-13T13:19:24.221Z,2.85
2018-07-13T13:21:53.494Z,3.27
2018-07-13T13:24:22.601Z,3.40
2018-07-13T13:26:51.770Z,2.90
2018-07-13T13:29:21.808Z,3.10
2018-07-13T13:31:50.985Z,3.00
2018-07-13T13:34:20.302Z,2.58
2018-07-13T13:36:49.530Z,2.87
2018-07-13T13:39:18.717Z,3.60
2018-07-13T13:41:47.961Z,3.00
2018-07-13T13:44:17.100Z,2.80
2018-07-13T13:46:46.205Z,2.30
2018-07-13T13:49:15.934Z,2.60
2018-07-13T13:51:45.164Z,2.65
2018-07-13T13:54:14.615Z,2.40
2018-07-13T13:56:43.829Z,2.55
2018-07-13T13:59:13.407Z,2.30
2018-07-13T14:01:42.468Z,2.22
2018-07-13T14:04:12.590Z,2.55
2018-07-13T14:06:41.711Z,2.50
2018-07-13T14:09:10.884Z,2.70
2018-07-13T14:11:40.016Z,2.62
2018-07-13T14:14:09.539Z,2.50
2018-07-13T14:16:39.186Z,2.70
2018-07-13T14:19:08.455Z,2.70
2018-07-13T14:21:37.625Z,2.20
2018-07-13T14:24:06.951Z,2.62
2018-07-13T14:26:36.119Z,2.90
2018-07-13T14:29:05.712Z,3.35
2018-07-13T14:31:35.834Z,2.62
2018-07-13T14:34:05.132Z,2.87
2018-07-13T14:36:34.339Z,3.20
2018-07-13T14:39:03.878Z,2.58
2018-07-13T14:41:32.948Z,2.75
2018-07-13T14:44:02.202Z,2.50
2018-07-13T14:46:31.243Z,2.50
2018-07-13T14:49:00.569Z,3.60
2018-07-13T14:51:29.875Z,3.20
2018-07-13T14:53:59.626Z,2.90
2018-07-13T14:56:29.273Z,3.10
2018-07-13T14:58:58.632Z,3.17
2018-07-13T15:01:28.208Z,2.80
2018-07-13T15:03:57.366Z,3.27
2018-07-13T15:06:27.002Z,2.40
2018-07-13T15:08:56.188Z,2.25
2018-07-13T15:11:25.718Z,2.70
2018-07-13T15:13:54.906Z,2.52
2018-07-13T15:16:24.237Z,2.95
2018-07-13T15:18:53.317Z,2.50
2018-07-13T15:21:22.205Z,2.50
2018-07-13T15:23:51.204Z,2.10
2018-07-13T15:26:20.462Z,2.70
2018-07-13T15:28:49.701Z,2.50
2018-07-13T15:31:19.494Z,2.70
2018-07-13T15:33:48.683Z,2.33
2018-07-13T15:36:17.895Z,2.15
2018-07-13T15:38:47.192Z,2.45
2018-07-13T15:41:16.436Z,2.87
2018-07-13T15:43:45.761Z,2.40
2018-07-13T15:46:15.132Z,2.30
2018-07-13T15:48:45.049Z,2.50
2018-07-13T15:51:14.225Z,2.55
2018-07-13T15:53:43.403Z,2.83
2018-07-13T15:56:12.727Z,2.30
2018-07-13T15:58:41.617Z,2.20
2018-07-13T16:01:10.997Z,2.40
2018-07-13T16:03:40.322Z,2.30
2018-07-13T16:06:12.570Z,2.25
2018-07-13T16:08:41.625Z,2.17
2018-07-13T16:11:10.988Z,2.50
2018-07-13T16:13:40.164Z,2.55
2018-07-13T16:16:09.545Z,2.40
2018-07-13T16:18:38.614Z,2.52
2018-07-13T16:21:07.771Z,2.52
2018-07-13T16:23:36.911Z,2.40
2018-07-13T16:26:06.319Z,2.70
2018-07-13T16:28:35.665Z,2.60
2018-07-13T16:31:04.836Z,2.92
2018-07-13T16:33:34.710Z,2.60
2018-07-13T16:36:03.871Z,2.50
2018-07-13T16:38:33.968Z,3.02
2018-07-13T16:41:03.169Z,2.50
2018-07-13T16:43:32.277Z,2.45
2018-07-13T16:46:01.414Z,2.70
2018-07-13T16:48:30.731Z,2.52
2018-07-13T16:50:59.853Z,2.42
2018-07-13T16:53:29.078Z,2.80
2018-07-13T16:55:58.529Z,3.37
2018-07-13T16:58:27.815Z,3.62
2018-07-13T17:00:57.500Z,3.98
2018-07-13T17:03:26.645Z,4.10
2018-07-13T17:05:55.872Z,2.98
2018-07-13T17:08:25.212Z,3.33
2018-07-13T17:10:54.600Z,2.92
2018-07-13T17:13:23.717Z,3.27
2018-07-13T17:15:53.090Z,3.17
2018-07-13T17:18:22.925Z,3.35
2018-07-13T17:20:52.001Z,3.58
2018-07-13T17:23:21.328Z,3.60
2018-07-13T17:25:51.067Z,3.25
2018-07-13T17:28:20.162Z,3.33
2018-07-13T17:30:49.370Z,3.10
2018-07-13T17:33:18.555Z,3.45
2018-07-13T17:35:48.515Z,2.90
2018-07-13T17:38:17.729Z,3.27
2018-07-13T17:40:47.315Z,3.33
2018-07-13T17:43:16.483Z,3.65
2018-07-13T17:45:45.592Z,3.50
2018-07-13T17:48:14.809Z,3.08
2018-07-13T17:50:43.935Z,3.25
2018-07-13T17:53:13.037Z,3.62
2018-07-13T17:55:42.222Z,3.05
2018-07-13T17:58:11.539Z,2.83
2018-07-13T18:00:40.969Z,2.98
2018-07-13T18:03:10.270Z,2.98
2018-07-13T18:05:39.473Z,3.12
2018-07-13T18:08:08.588Z,3.20
2018-07-13T18:10:37.401Z,3.08
2018-07-13T18:13:06.402Z,3.20
2018-07-13T18:15:35.405Z,3.20
2018-07-13T18:18:04.126Z,3.08
2018-07-13T18:20:33.248Z,3.30
2018-07-13T18:23:02.419Z,3.30
2018-07-13T18:25:31.627Z,3.25
2018-07-13T18:28:00.739Z,3.70
2018-07-13T18:30:30.122Z,4.80
2018-07-13T18:33:00.053Z,5.10
2018-07-13T18:35:29.160Z,5.13
2018-07-13T18:37:58.358Z,5.00
2018-07-13T18:40:27.769Z,5.47
2018-07-13T18:42:56.975Z,5.37
2018-07-13T18:45:26.128Z,5.80
2018-07-13T18:47:55.934Z,5.73
2018-07-13T18:50:25.161Z,6.07
2018-07-13T18:52:54.862Z,6.37
2018-07-13T18:55:24.083Z,6.03
2018-07-13T18:57:53.233Z,6.03
2018-07-13T19:00:22.368Z,5.90
2018-07-13T19:02:51.600Z,5.70
2018-07-13T19:05:20.974Z,6.27
2018-07-13T19:07:50.325Z,5.80
2018-07-13T19:10:19.742Z,5.63
2018-07-13T19:12:48.867Z,5.57
2018-07-13T19:15:18.123Z,5.53
2018-07-13T19:17:47.214Z,6.10
2018-07-13T19:20:16.585Z,5.70
2018-07-13T19:22:45.822Z,5.90
2018-07-13T19:25:15.118Z,5.50
2018-07-13T19:27:44.522Z,6.13
2018-07-13T19:30:13.667Z,5.80
2018-07-13T19:32:43.345Z,5.63
2018-07-13T19:35:12.704Z,5.30
2018-07-13T19:37:42.046Z,6.20
2018-07-13T19:40:11.241Z,6.50
2018-07-13T19:42:40.678Z,5.10
2018-07-13T19:45:09.866Z,6.10
2018-07-13T19:47:39.141Z,6.17
2018-07-13T19:50:08.289Z,5.83
2018-07-13T19:52:37.476Z,5.93
2018-07-13T19:55:07.394Z,5.63
2018-07-13T19:57:36.508Z,5.87
2018-07-13T20:00:06.135Z,6.00
2018-07-13T20:02:35.363Z,6.60
2018-07-13T20:05:05.756Z,6.63
2018-07-13T20:07:34.988Z,6.90
2018-07-13T20:10:04.289Z,6.87
2018-07-13T20:12:33.669Z,6.90
2018-07-13T20:15:03.032Z,6.67
2018-07-13T20:17:32.155Z,6.63
2018-07-13T20:20:01.165Z,7.30
2018-07-13T20:22:30.307Z,7.33
2018-07-13T20:24:59.438Z,7.37
2018-07-13T20:27:28.618Z,7.27
2018-07-13T20:29:57.808Z,7.40
2018-07-13T20:32:27.638Z,7.83
2018-07-13T20:34:56.777Z,6.87
2018-07-13T20:37:25.913Z,6.80
2018-07-13T20:39:54.848Z,6.73
2018-07-13T20:42:24.120Z,7.57
2018-07-13T20:44:53.312Z,7.50
2018-07-13T20:47:22.616Z,7.73
2018-07-13T20:49:51.733Z,7.83
2018-07-13T20:52:20.964Z,7.73
2018-07-13T20:54:50.074Z,8.10
2018-07-13T20:57:19.522Z,8.03
2018-07-13T20:59:49.574Z,8.33
2018-07-13T21:02:18.947Z,9.17
2018-07-13T21:04:48.216Z,9.27
2018-07-13T21:07:17.359Z,8.97
2018-07-13T21:09:46.654Z,8.33
2018-07-13T21:12:15.762Z,8.13
2018-07-13T21:14:45.422Z,8.27
2018-07-13T21:17:14.662Z,8.30
2018-07-13T21:19:43.746Z,9.10
2018-07-13T21:22:12.915Z,9.20
2018-07-13T21:24:42.198Z,8.67
2018-07-13T21:27:11.935Z,8.90
2018-07-13T21:29:41.570Z,9.13
2018-07-13T21:32:10.777Z,8.87
2018-07-13T21:34:40.765Z,8.93
2018-07-13T21:37:10.199Z,9.17
2018-07-13T21:39:39.366Z,8.80
2018-07-13T21:42:08.854Z,9.43
2018-07-13T21:44:37.970Z,10.17
2018-07-13T21:47:06.823Z,9.73
2018-07-13T21:49:36.132Z,9.57
2018-07-13T21:52:05.335Z,9.30
2018-07-13T21:54:34.445Z,8.80
2018-07-13T21:57:03.723Z,8.40
2018-07-13T21:59:32.930Z,8.33
2018-07-13T22:02:02.436Z,8.30
2018-07-13T22:04:31.504Z,8.47
2018-07-13T22:07:00.713Z,9.50
2018-07-13T22:09:30.133Z,9.83
2018-07-13T22:11:59.374Z,9.60
2018-07-13T22:14:28.687Z,9.80
2018-07-13T22:16:58.026Z,8.63
2018-07-13T22:19:27.331Z,9.20
2018-07-13T22:21:56.527Z,9.57
2018-07-13T22:24:25.659Z,9.87
2018-07-13T22:26:54.899Z,9.17
2018-07-13T22:29:25.270Z,9.00
2018-07-13T22:31:54.664Z,9.40
2018-07-13T22:34:23.779Z,8.90
2018-07-13T22:36:53.591Z,9.63
2018-07-13T22:39:22.806Z,9.77
2018-07-13T22:41:52.063Z,10.10
2018-07-13T22:44:21.197Z,10.10
2018-07-13T22:46:50.584Z,9.90
2018-07-13T22:49:19.717Z,9.97
2018-07-13T22:51:48.924Z,10.13
2018-07-13T22:54:18.165Z,9.80
2018-07-13T22:56:47.297Z,9.70
2018-07-13T22:59:17.218Z,9.40
2018-07-13T23:01:46.744Z,9.13
2018-07-13T23:04:15.970Z,9.37
2018-07-13T23:06:45.304Z,8.87
2018-07-13T23:09:14.420Z,9.43
2018-07-13T23:11:43.864Z,9.80
2018-07-13T23:14:13.302Z,9.83
2018-07-13T23:16:42.391Z,9.30
2018-07-13T23:19:11.671Z,9.20
2018-07-13T23:21:40.857Z,9.50
2018-07-13T23:24:10.393Z,9.20
2018-07-13T23:26:40.054Z,9.57
2018-07-13T23:29:09.266Z,9.17
2018-07-13T23:31:39.618Z,10.13
2018-07-13T23:34:08.816Z,9.67
2018-07-13T23:36:37.951Z,9.27
2018-07-13T23:39:07.126Z,9.67
2018-07-13T23:41:36.266Z,9.70
2018-07-13T23:44:06.131Z,9.60
2018-07-13T23:46:35.453Z,9.53
2018-07-13T23:49:04.959Z,10.20
2018-07-13T23:51:34.233Z,9.70
2018-07-13T23:54:03.328Z,9.93
2018-07-13T23:56:32.554Z,10.07
2018-07-13T23:59:01.901Z,9.97
